首页
METAR-TAF:

METAR-TAF

机场 :

North Myrtle Beach, 南卡罗来纳州, 美国

纬度: 33-48-42N, 经度: 078-43-26W, 海拔: 10米

当前天气观测

该预报发布于13分钟前的09:53 UTC
风速4节,风向西转西南
温度 27°C
湿度 94%
气压 1011 hPa
能見度: 16.1公里
天空无云

METAR: KCRE 010953Z AUTO 24004KT 10SM CLR 27/26 A2986 RMK AO1 LTG DSNT E-S SLP112 T02720261

时间: 06:06 (10:06 UTC)

预报

该预报发布于1小时和58分钟前的08:08 UTC
预报有效从01日的 08点(UTC)到 02日的 06点(UTC)
风速5节,风向西南
能見度: 10公里
多云层高于1000英尺
多云层高于20000英尺
从 01日的 1300点(UTC)
风速9节,风向西转西南
能見度: 10公里
散云层高于2500英尺
多云层高于25000英尺
从 01日的 1800点(UTC)
风速14节,风向南转西南,有时为20节阵风
能見度: 10公里
散云层高于3500英尺, 积雨云.
多云层高于4500英尺
附近有雷暴
几率 30%
从 01日的 20点(UTC)到 02日的 02点(UTC)
风速20节,风向多变,有时为35节阵风
能見度: 4.8公里
散云层高于1500英尺
多云层高于2500英尺, 积雨云.
阴天层高于4000英尺
雷暴, 雨, 轻雾
从 02日的 0200点(UTC)
风速10节,风向西南
能見度: 10公里
散云层高于2500英尺, 积雨云.
多云层高于5000英尺
阴天层高于25000英尺
附近有雷暴
从 02日的 0400点(UTC)
风速8节,风向西转西南
能見度: 10公里
多云层高于8000英尺

TAF: KCRE 010808Z 0108/0206 23005KT P6SM BKN010 BKN200 FM011300 24009KT P6SM SCT025 BKN250 FM011800 21014G20KT P6SM VCTS SCT035CB BKN045 PROB30 0120/0202 VRB20G35KT 3SM TSRA BR SCT015 BKN025CB OVC040 FM020200 22010KT P6SM VCTS SCT025CB BKN050 OVC250 FM020400 25008KT P6SM BKN080

超过4000个机场的气象观测和天气预报(METAR&TAF报告)。

可查询的气象台以黄色和红色小点在地图上表示。

将鼠标移到小点上方,可查看气象台名称。

然后点击查看天气观测和预报。

如需切换地图:点击带黑十字的绿色按钮放大地图;点击带横线的绿色按钮缩小地图;或者点击绿色箭头查看邻近地区的地图。


METAR-TAF: